Time;durP1;ratioP1;P1;durP2;ratioP2;P2;SDS_P1;SDS_P2;PMS_P1;PMS_P2;Temp;Humidity;BMP_temperature;BMP_pressure;BME280_temperature;BME280_humidity;BME280_pressure;Samples;Min_cycle;Max_cycle;Signal;HPM_P1;HPM_P2
2024/04/16 00:02:15;;;;;;;4.70;3.20;;;;;;;;;;5191221;27;20095;-80
2024/04/16 00:04:40;;;;;;;4.28;3.17;;;;;;;;;;5246727;27;19999;-77
2024/04/16 00:07:06;;;;;;;4.50;3.10;;;;;;;;;;5208355;27;20014;-78
2024/04/16 00:09:31;;;;;;;4.18;2.78;;;;;;;;;;5207130;27;20011;-77
2024/04/16 00:11:58;;;;;;;4.63;3.20;;;;;;;;;;5203830;27;20009;-78
2024/04/16 00:14:23;;;;;;;4.65;3.28;;;;;;;;;;5170645;27;20004;-76
2024/04/16 00:16:49;;;;;;;5.05;3.25;;;;;;;;;;5208708;27;20346;-77
2024/04/16 00:19:14;;;;;;;9.95;3.33;;;;;;;;;;5170847;27;20003;-77
2024/04/16 00:21:39;;;;;;;4.85;2.80;;;;;;;;;;5175208;27;20451;-77
2024/04/16 00:24:05;;;;;;;7.70;3.35;;;;;;;;;;5194799;27;20021;-76
2024/04/16 00:26:30;;;;;;;5.22;3.13;;;;;;;;;;5194960;27;20013;-76
2024/04/16 00:28:56;;;;;;;5.03;2.85;;;;;;;;;;5204557;27;20019;-76
2024/04/16 00:31:21;;;;;;;7.45;3.20;;;;;;;;;;5205925;27;20358;-77
2024/04/16 00:33:47;;;;;;;4.28;3.50;;;;;;;;;;5233094;27;20603;-77
2024/04/16 00:36:12;;;;;;;3.67;3.28;;;;;;;;;;5163685;27;20035;-77
2024/04/16 00:38:39;;;;;;;5.28;3.13;;;;;;;;;;5189286;27;20000;-76
2024/04/16 00:41:04;;;;;;;5.03;3.50;;;;;;;;;;5198635;27;20727;-78
2024/04/16 00:43:30;;;;;;;4.45;3.28;;;;;;;;;;5241438;27;19999;-79
2024/04/16 00:45:55;;;;;;;3.83;3.42;;;;;;;;;;5205758;27;20331;-77
2024/04/16 00:48:22;;;;;;;4.00;3.22;;;;;;;;;;5173634;27;20481;-77
2024/04/16 00:50:47;;;;;;;4.47;3.13;;;;;;;;;;5198946;27;20518;-76
2024/04/16 00:53:13;;;;;;;5.53;3.42;;;;;;;;;;5206873;27;20029;-77
2024/04/16 00:55:38;;;;;;;4.45;3.30;;;;;;;;;;5206637;27;20019;-77
2024/04/16 00:58:04;;;;;;;6.10;3.33;;;;;;;;;;5189742;27;20007;-77
2024/04/16 01:00:29;;;;;;;4.28;3.20;;;;;;;;;;5209057;27;20030;-77
2024/04/16 01:02:55;;;;;;;5.25;3.30;;;;;;;;;;5182682;27;19999;-77
2024/04/16 01:05:20;;;;;;;5.18;3.00;;;;;;;;;;5236787;27;20003;-77
2024/04/16 01:07:45;;;;;;;4.90;3.22;;;;;;;;;;5201975;27;20410;-77
2024/04/16 01:10:11;;;;;;;5.30;3.03;;;;;;;;;;5203599;27;20003;-76
2024/04/16 01:12:40;;;;;;;3.80;3.30;;;;;;;;;;5179869;27;20029;-76
2024/04/16 01:15:05;;;;;;;4.45;2.97;;;;;;;;;;5210001;27;20447;-77
2024/04/16 01:17:31;;;;;;;3.83;2.90;;;;;;;;;;5237695;27;20039;-78
2024/04/16 01:19:56;;;;;;;4.18;3.20;;;;;;;;;;5179083;27;20080;-78
2024/04/16 01:22:21;;;;;;;6.03;3.38;;;;;;;;;;5206658;27;20334;-77
2024/04/16 01:24:47;;;;;;;4.70;3.10;;;;;;;;;;5207774;27;20003;-76
2024/04/16 01:27:12;;;;;;;5.03;3.42;;;;;;;;;;5207671;27;20098;-77
2024/04/16 01:29:37;;;;;;;3.88;3.10;;;;;;;;;;5201668;27;20018;-77
2024/04/16 01:32:03;;;;;;;5.38;3.40;;;;;;;;;;5207900;27;20127;-76
2024/04/16 01:34:28;;;;;;;4.35;3.15;;;;;;;;;;5173429;27;20004;-77
2024/04/16 01:36:53;;;;;;;4.72;3.75;;;;;;;;;;5210039;27;20111;-77
2024/04/16 01:39:19;;;;;;;5.15;3.45;;;;;;;;;;5190044;27;20404;-77
2024/04/16 01:41:44;;;;;;;5.78;3.33;;;;;;;;;;5198668;27;20098;-77
2024/04/16 01:44:10;;;;;;;7.13;3.47;;;;;;;;;;5208301;27;20014;-77
2024/04/16 01:46:36;;;;;;;5.03;3.33;;;;;;;;;;5182023;27;20003;-75
2024/04/16 01:49:01;;;;;;;4.28;2.97;;;;;;;;;;5182047;27;20007;-77
2024/04/16 01:51:27;;;;;;;4.65;3.47;;;;;;;;;;5205223;27;20327;-77
2024/04/16 01:53:52;;;;;;;5.00;3.20;;;;;;;;;;5208828;27;20018;-77
2024/04/16 01:56:17;;;;;;;4.57;3.10;;;;;;;;;;5181230;27;20011;-77
2024/04/16 01:58:43;;;;;;;5.47;3.08;;;;;;;;;;5176403;27;20064;-77
2024/04/16 02:01:08;;;;;;;5.00;3.42;;;;;;;;;;5181025;27;20421;-77
2024/04/16 02:03:33;;;;;;;4.55;3.03;;;;;;;;;;5207788;27;21136;-77
2024/04/16 02:06:02;;;;;;;5.50;3.38;;;;;;;;;;5237918;27;20019;-77
2024/04/16 02:08:28;;;;;;;4.43;3.20;;;;;;;;;;5207709;27;20023;-77
2024/04/16 02:10:54;;;;;;;5.75;3.40;;;;;;;;;;5238409;27;20017;-77
2024/04/16 02:13:19;;;;;;;5.93;3.17;;;;;;;;;;5179063;27;20458;-77
2024/04/16 02:15:44;;;;;;;4.35;3.20;;;;;;;;;;5208777;27;20006;-77
2024/04/16 02:18:10;;;;;;;4.45;3.17;;;;;;;;;;5178654;27;20007;-77
2024/04/16 02:20:35;;;;;;;4.63;3.60;;;;;;;;;;5206068;27;20018;-77
2024/04/16 02:23:00;;;;;;;5.25;3.40;;;;;;;;;;5203744;27;20040;-77
2024/04/16 02:25:26;;;;;;;4.35;3.17;;;;;;;;;;5177360;27;20019;-77
2024/04/16 02:27:51;;;;;;;5.88;3.25;;;;;;;;;;5180130;27;20047;-77
2024/04/16 02:30:16;;;;;;;4.25;3.47;;;;;;;;;;5207649;27;20011;-77
2024/04/16 02:32:42;;;;;;;4.65;3.35;;;;;;;;;;5198954;27;20007;-76
2024/04/16 02:35:07;;;;;;;5.53;3.45;;;;;;;;;;5206015;27;20003;-77
2024/04/16 02:37:32;;;;;;;3.78;3.28;;;;;;;;;;5234514;27;20689;-77
2024/04/16 02:39:58;;;;;;;4.25;3.03;;;;;;;;;;5238853;27;20007;-77
2024/04/16 02:42:23;;;;;;;4.20;3.20;;;;;;;;;;5199278;27;20018;-77
2024/04/16 02:44:48;;;;;;;4.20;3.10;;;;;;;;;;5184259;27;20003;-77
2024/04/16 02:47:14;;;;;;;4.63;3.58;;;;;;;;;;5212286;27;20010;-77
2024/04/16 02:49:39;;;;;;;5.10;3.75;;;;;;;;;;5185373;27;20018;-77
2024/04/16 02:52:04;;;;;;;4.07;3.20;;;;;;;;;;5213647;27;20018;-76
2024/04/16 02:54:30;;;;;;;4.95;3.33;;;;;;;;;;5184918;27;20026;-77
2024/04/16 02:56:55;;;;;;;3.63;3.15;;;;;;;;;;5168719;27;20489;-77
2024/04/16 02:59:20;;;;;;;5.30;3.33;;;;;;;;;;5228578;27;20006;-76
2024/04/16 03:01:46;;;;;;;4.25;3.17;;;;;;;;;;5212715;27;20017;-76
2024/04/16 03:04:11;;;;;;;4.78;3.55;;;;;;;;;;5183066;27;20457;-77
2024/04/16 03:06:36;;;;;;;4.75;3.40;;;;;;;;;;5185500;27;20003;-77
2024/04/16 03:09:02;;;;;;;4.93;3.53;;;;;;;;;;5183511;27;20007;-77
2024/04/16 03:11:27;;;;;;;5.50;3.33;;;;;;;;;;5185818;27;20043;-77
2024/04/16 03:13:52;;;;;;;5.15;3.17;;;;;;;;;;5175269;27;20377;-77
2024/04/16 03:16:18;;;;;;;7.22;3.75;;;;;;;;;;5184814;27;20459;-77
2024/04/16 03:18:45;;;;;;;5.32;3.83;;;;;;;;;;5211974;27;20176;-76
2024/04/16 03:21:10;;;;;;;5.18;3.72;;;;;;;;;;5206499;27;20307;-76
2024/04/16 03:23:35;;;;;;;4.07;3.10;;;;;;;;;;5177031;27;20010;-77
2024/04/16 03:26:01;;;;;;;5.50;4.05;;;;;;;;;;5209105;27;20431;-76
2024/04/16 03:28:26;;;;;;;5.10;3.30;;;;;;;;;;5186919;27;20044;-76
2024/04/16 03:30:52;;;;;;;4.60;3.40;;;;;;;;;;5241666;27;20010;-77
2024/04/16 03:33:17;;;;;;;5.68;3.30;;;;;;;;;;5240785;27;20011;-77
2024/04/16 03:35:42;;;;;;;4.82;3.20;;;;;;;;;;5241876;27;19999;-77
2024/04/16 03:38:09;;;;;;;5.25;3.58;;;;;;;;;;5183654;27;20308;-77
2024/04/16 03:40:37;;;;;;;4.32;3.40;;;;;;;;;;5167446;27;20010;-77
2024/04/16 03:43:02;;;;;;;5.45;3.70;;;;;;;;;;5209112;27;20038;-77
2024/04/16 03:45:27;;;;;;;3.80;3.17;;;;;;;;;;5213049;27;20790;-77
2024/04/16 03:47:53;;;;;;;3.50;3.10;;;;;;;;;;5212763;27;20015;-77
2024/04/16 03:50:18;;;;;;;5.97;3.85;;;;;;;;;;5205557;27;20041;-77
2024/04/16 03:52:43;;;;;;;5.38;3.95;;;;;;;;;;5209045;27;20361;-77
2024/04/16 03:55:09;;;;;;;5.43;3.42;;;;;;;;;;5241759;27;20018;-76
2024/04/16 03:57:34;;;;;;;4.50;3.70;;;;;;;;;;5207665;27;20003;-77
2024/04/16 04:02:44;;;;;;;4.60;3.55;;;;;;;;;;5218829;27;20072;-77
2024/04/16 04:05:09;;;;;;;6.18;3.85;;;;;;;;;;5211863;27;20015;-77
2024/04/16 04:07:34;;;;;;;5.07;3.78;;;;;;;;;;5202604;27;20082;-77
2024/04/16 04:10:00;;;;;;;3.55;3.25;;;;;;;;;;5206788;27;20003;-77
2024/04/16 04:12:25;;;;;;;4.30;3.38;;;;;;;;;;5203773;27;20007;-76
2024/04/16 04:14:51;;;;;;;5.03;3.33;;;;;;;;;;5210293;27;19999;-73
2024/04/16 04:17:16;;;;;;;5.05;3.35;;;;;;;;;;5214067;27;19999;-73
2024/04/16 04:19:41;;;;;;;4.97;3.47;;;;;;;;;;5182020;27;20007;-75
2024/04/16 04:22:07;;;;;;;5.45;3.90;;;;;;;;;;5184199;27;20054;-74
2024/04/16 04:24:32;;;;;;;5.03;3.30;;;;;;;;;;5201897;27;19999;-73
2024/04/16 04:26:57;;;;;;;4.97;3.20;;;;;;;;;;5182233;27;20458;-75
2024/04/16 04:29:23;;;;;;;4.78;3.28;;;;;;;;;;5243580;27;20419;-75
2024/04/16 04:31:48;;;;;;;3.95;3.17;;;;;;;;;;5226525;27;20077;-75
2024/04/16 04:34:13;;;;;;;4.32;3.40;;;;;;;;;;5226580;27;20004;-76
2024/04/16 04:36:39;;;;;;;4.82;3.47;;;;;;;;;;5237506;27;20018;-75
2024/04/16 04:39:04;;;;;;;4.25;3.58;;;;;;;;;;5241308;27;20022;-75
2024/04/16 04:41:30;;;;;;;4.65;2.90;;;;;;;;;;5195860;27;20015;-72
2024/04/16 04:43:55;;;;;;;6.10;3.70;;;;;;;;;;5236468;27;20036;-73
2024/04/16 04:46:21;;;;;;;5.80;3.78;;;;;;;;;;5222129;27;20018;-79
2024/04/16 04:48:46;;;;;;;5.22;3.33;;;;;;;;;;5205701;27;20018;-77
2024/04/16 04:51:30;;;;;;;4.75;3.40;;;;;;;;;;5442734;25;20759;-65
2024/04/16 04:53:55;;;;;;;6.25;3.83;;;;;;;;;;5443674;26;19999;-64
2024/04/16 04:56:21;;;;;;;4.65;3.55;;;;;;;;;;5464968;26;20016;-63
2024/04/16 04:58:49;;;;;;;6.15;4.22;;;;;;;;;;5442753;26;20013;-64
2024/04/16 05:01:14;;;;;;;5.93;3.60;;;;;;;;;;5460266;26;20103;-67
2024/04/16 05:03:39;;;;;;;5.50;3.40;;;;;;;;;;5443327;26;20003;-66
2024/04/16 05:06:05;;;;;;;4.90;3.78;;;;;;;;;;5461420;26;20013;-63
2024/04/16 05:08:31;;;;;;;7.28;5.20;;;;;;;;;;5467011;26;19998;-70
2024/04/16 05:10:56;;;;;;;9.27;4.75;;;;;;;;;;5464787;26;20010;-64
2024/04/16 05:13:22;;;;;;;9.13;4.80;;;;;;;;;;5440441;26;20084;-63
2024/04/16 05:15:47;;;;;;;8.75;4.93;;;;;;;;;;5463883;26;20421;-63
2024/04/16 05:18:12;;;;;;;10.45;5.35;;;;;;;;;;5468077;26;20542;-64
2024/04/16 05:20:38;;;;;;;7.97;4.80;;;;;;;;;;5466441;26;20013;-64
2024/04/16 05:23:03;;;;;;;9.50;4.93;;;;;;;;;;5465379;26;20003;-67
2024/04/16 05:25:29;;;;;;;6.97;4.40;;;;;;;;;;5453359;26;20010;-65
2024/04/16 05:27:54;;;;;;;7.28;4.60;;;;;;;;;;5465783;26;20446;-63
2024/04/16 05:30:19;;;;;;;10.07;4.72;;;;;;;;;;5453641;26;20011;-68
2024/04/16 05:32:44;;;;;;;7.72;4.65;;;;;;;;;;5453584;26;20009;-67
2024/04/16 05:35:10;;;;;;;7.13;4.22;;;;;;;;;;5454243;26;19999;-68
2024/04/16 05:37:35;;;;;;;7.25;4.28;;;;;;;;;;5444897;26;20084;-66
2024/04/16 05:40:00;;;;;;;7.13;4.57;;;;;;;;;;5442357;26;20417;-62
2024/04/16 05:42:26;;;;;;;8.02;4.43;;;;;;;;;;5464878;26;20020;-67
2024/04/16 05:44:51;;;;;;;5.97;3.97;;;;;;;;;;5442254;26;20003;-66
2024/04/16 05:47:16;;;;;;;8.00;4.70;;;;;;;;;;5451098;26;20010;-66
2024/04/16 05:49:42;;;;;;;9.20;4.70;;;;;;;;;;5455301;26;20006;-66
2024/04/16 05:52:07;;;;;;;7.22;4.53;;;;;;;;;;5440894;26;20009;-66
2024/04/16 05:54:32;;;;;;;9.48;4.60;;;;;;;;;;5448746;26;20019;-65
2024/04/16 05:56:59;;;;;;;7.32;4.32;;;;;;;;;;5465364;26;20097;-66
2024/04/16 05:59:25;;;;;;;9.85;4.55;;;;;;;;;;5455864;26;20014;-62
2024/04/16 06:01:50;;;;;;;8.65;4.35;;;;;;;;;;5449464;26;20006;-65
2024/04/16 06:04:16;;;;;;;12.35;4.15;;;;;;;;;;5439899;26;20006;-64
2024/04/16 06:06:41;;;;;;;10.45;4.47;;;;;;;;;;5437788;26;20044;-63
2024/04/16 06:09:06;;;;;;;8.70;4.43;;;;;;;;;;5441503;26;20417;-65
2024/04/16 06:11:32;;;;;;;7.57;4.25;;;;;;;;;;5438456;26;20028;-63
2024/04/16 06:14:00;;;;;;;8.57;4.25;;;;;;;;;;5437765;26;20007;-61
2024/04/16 06:16:26;;;;;;;6.88;4.07;;;;;;;;;;5447605;26;19999;-63
2024/04/16 06:18:51;;;;;;;8.98;4.40;;;;;;;;;;5445265;26;19994;-66
2024/04/16 06:21:16;;;;;;;7.95;4.22;;;;;;;;;;5444864;26;20019;-64
2024/04/16 06:23:42;;;;;;;8.50;4.07;;;;;;;;;;5444694;26;20031;-62
2024/04/16 06:26:07;;;;;;;7.47;4.18;;;;;;;;;;5436954;26;19995;-65
2024/04/16 06:28:33;;;;;;;7.25;4.20;;;;;;;;;;5441110;26;20003;-66
2024/04/16 06:31:06;;;;;;;7.78;4.03;;;;;;;;;;5452670;26;20039;-64
2024/04/16 06:33:37;;;;;;;8.27;4.55;;;;;;;;;;5449554;26;20010;-65
2024/04/16 06:36:05;;;;;;;9.13;4.45;;;;;;;;;;5448369;26;20462;-66
2024/04/16 06:38:31;;;;;;;7.05;4.35;;;;;;;;;;5449326;26;20110;-62
2024/04/16 06:40:56;;;;;;;6.93;4.10;;;;;;;;;;5448811;26;20424;-65
2024/04/16 06:43:21;;;;;;;6.53;3.78;;;;;;;;;;5448523;26;19998;-63
2024/04/16 06:45:47;;;;;;;7.88;4.15;;;;;;;;;;5445389;26;19999;-62
2024/04/16 06:48:12;;;;;;;8.02;4.38;;;;;;;;;;5446216;26;20066;-63
2024/04/16 06:50:46;;;;;;;6.50;3.85;;;;;;;;;;5446632;26;20007;-63
2024/04/16 06:53:12;;;;;;;8.45;4.38;;;;;;;;;;5444899;26;19998;-61
2024/04/16 06:55:37;;;;;;;7.18;4.13;;;;;;;;;;5436575;26;20005;-62
2024/04/16 06:58:02;;;;;;;5.68;3.53;;;;;;;;;;5449128;26;20014;-64
2024/04/16 07:00:28;;;;;;;6.53;3.72;;;;;;;;;;5452380;26;20076;-63
2024/04/16 07:02:53;;;;;;;6.20;3.80;;;;;;;;;;5448847;26;19999;-65
2024/04/16 07:05:18;;;;;;;6.57;3.88;;;;;;;;;;5447158;26;19999;-63
2024/04/16 07:07:44;;;;;;;6.40;4.00;;;;;;;;;;5447074;26;20464;-65
2024/04/16 07:10:09;;;;;;;5.72;3.72;;;;;;;;;;5432020;26;20000;-62
2024/04/16 07:12:34;;;;;;;5.70;3.97;;;;;;;;;;5444854;26;20048;-62
2024/04/16 07:15:00;;;;;;;6.95;3.90;;;;;;;;;;5444156;26;20348;-62
2024/04/16 07:17:28;;;;;;;7.13;4.28;;;;;;;;;;5447375;26;20017;-62
2024/04/16 07:19:58;;;;;;;8.80;4.10;;;;;;;;;;5432022;26;20022;-64
2024/04/16 07:22:24;;;;;;;8.45;4.43;;;;;;;;;;5442595;26;20428;-65
2024/04/16 07:24:50;;;;;;;7.30;4.20;;;;;;;;;;5442341;26;20076;-65
2024/04/16 07:27:15;;;;;;;7.15;3.78;;;;;;;;;;5443988;26;19995;-65
2024/04/16 07:29:41;;;;;;;9.00;4.57;;;;;;;;;;5448145;26;19994;-63
2024/04/16 07:32:07;;;;;;;7.97;4.90;;;;;;;;;;5447997;26;19998;-64
2024/04/16 07:34:32;;;;;;;7.78;4.05;;;;;;;;;;5433486;26;20011;-60
2024/04/16 07:36:57;;;;;;;8.35;3.75;;;;;;;;;;5412817;26;20353;-64
2024/04/16 07:39:23;;;;;;;8.45;4.10;;;;;;;;;;5438955;26;20083;-63
2024/04/16 07:41:48;;;;;;;7.07;4.15;;;;;;;;;;5446653;26;20003;-65
2024/04/16 07:44:13;;;;;;;7.80;4.45;;;;;;;;;;5448586;26;19991;-67
2024/04/16 07:46:38;;;;;;;6.63;4.00;;;;;;;;;;5446342;26;20439;-60
2024/04/16 07:49:10;;;;;;;7.18;3.83;;;;;;;;;;5447454;26;20011;-65
2024/04/16 07:51:36;;;;;;;7.53;4.00;;;;;;;;;;5444651;26;19991;-61
2024/04/16 07:54:01;;;;;;;8.02;4.25;;;;;;;;;;5447148;26;20022;-66
2024/04/16 07:56:26;;;;;;;6.68;4.03;;;;;;;;;;5448224;26;20467;-65
2024/04/16 07:58:52;;;;;;;6.88;4.05;;;;;;;;;;5443441;26;20005;-66
2024/04/16 08:01:17;;;;;;;7.13;3.92;;;;;;;;;;5445775;26;20331;-66
2024/04/16 08:03:43;;;;;;;8.20;4.22;;;;;;;;;;5433328;26;20026;-66
2024/04/16 08:06:10;;;;;;;9.23;4.50;;;;;;;;;;5448161;26;19995;-68
2024/04/16 08:08:35;;;;;;;9.95;4.60;;;;;;;;;;5445184;26;20048;-67
2024/04/16 08:11:10;;;;;;;7.80;4.10;;;;;;;;;;5446685;26;20003;-67
2024/04/16 08:13:35;;;;;;;8.77;4.18;;;;;;;;;;5443363;26;20082;-65
2024/04/16 08:16:01;;;;;;;7.18;4.65;;;;;;;;;;5433553;26;20083;-63
2024/04/16 08:18:29;;;;;;;11.40;4.90;;;;;;;;;;5447978;26;20083;-64
2024/04/16 08:20:54;;;;;;;8.07;4.30;;;;;;;;;;5437834;26;20087;-65
2024/04/16 08:23:20;;;;;;;7.13;4.60;;;;;;;;;;5439732;26;20456;-63
2024/04/16 08:25:46;;;;;;;10.57;4.68;;;;;;;;;;5431322;26;20090;-67
2024/04/16 08:28:11;;;;;;;6.15;4.30;;;;;;;;;;5434237;26;20007;-66
2024/04/16 08:30:36;;;;;;;7.68;4.28;;;;;;;;;;5444801;26;20003;-65
2024/04/16 08:33:03;;;;;;;6.07;4.28;;;;;;;;;;5444292;26;20014;-63
2024/04/16 08:35:28;;;;;;;7.78;4.35;;;;;;;;;;5447743;26;20340;-65
2024/04/16 08:37:53;;;;;;;6.80;4.30;;;;;;;;;;5444555;26;20124;-65
2024/04/16 08:40:19;;;;;;;11.00;4.40;;;;;;;;;;5437929;26;20007;-63
2024/04/16 08:42:44;;;;;;;6.20;4.07;;;;;;;;;;5440284;26;19999;-65
2024/04/16 08:45:10;;;;;;;8.73;4.00;;;;;;;;;;5440460;26;19998;-65
2024/04/16 08:47:39;;;;;;;7.95;4.30;;;;;;;;;;5428561;26;20003;-63
2024/04/16 08:50:05;;;;;;;7.50;3.95;;;;;;;;;;5447067;26;19995;-65
2024/04/16 08:52:31;;;;;;;9.48;4.70;;;;;;;;;;5447029;26;20031;-65
2024/04/16 08:54:56;;;;;;;7.50;4.55;;;;;;;;;;5415953;26;19995;-65
2024/04/16 08:57:21;;;;;;;8.40;4.55;;;;;;;;;;5446471;26;20435;-65
2024/04/16 08:59:50;;;;;;;8.63;5.03;;;;;;;;;;5444919;26;20464;-63
2024/04/16 09:02:16;;;;;;;8.38;4.20;;;;;;;;;;5442772;26;20031;-66
2024/04/16 09:04:41;;;;;;;10.35;4.35;;;;;;;;;;5436066;26;20014;-64
2024/04/16 09:07:06;;;;;;;7.60;4.50;;;;;;;;;;5424409;26;20007;-65
2024/04/16 09:09:33;;;;;;;9.95;4.65;;;;;;;;;;5411396;26;20025;-66
2024/04/16 09:11:58;;;;;;;7.22;4.05;;;;;;;;;;5429083;26;20035;-66
2024/04/16 09:14:23;;;;;;;5.97;3.72;;;;;;;;;;5437106;26;20332;-64
2024/04/16 09:16:49;;;;;;;11.27;4.72;;;;;;;;;;5444779;26;20930;-65
2024/04/16 09:19:15;;;;;;;8.65;4.30;;;;;;;;;;5425061;26;20015;-65
2024/04/16 09:21:40;;;;;;;8.13;4.20;;;;;;;;;;5445180;26;20003;-63
2024/04/16 09:24:06;;;;;;;6.63;4.28;;;;;;;;;;5443998;26;20059;-66
2024/04/16 09:26:35;;;;;;;8.50;3.80;;;;;;;;;;5414154;26;20007;-64
2024/04/16 09:29:01;;;;;;;5.53;3.40;;;;;;;;;;5434800;26;20003;-64
2024/04/16 09:31:26;;;;;;;6.88;4.00;;;;;;;;;;5444479;26;19998;-66
2024/04/16 09:33:52;;;;;;;7.53;4.03;;;;;;;;;;5445546;26;19999;-64
2024/04/16 09:36:17;;;;;;;9.02;4.53;;;;;;;;;;5447452;26;20003;-63
2024/04/16 09:38:43;;;;;;;8.68;4.47;;;;;;;;;;5431356;26;19999;-62
2024/04/16 09:41:11;;;;;;;10.20;4.95;;;;;;;;;;5446201;26;20397;-62
2024/04/16 09:43:41;;;;;;;7.63;3.85;;;;;;;;;;5437663;26;20004;-64
2024/04/16 09:46:12;;;;;;;8.02;3.72;;;;;;;;;;5449785;26;19999;-65
2024/04/16 09:48:38;;;;;;;8.38;4.25;;;;;;;;;;5435251;26;20010;-64
2024/04/16 09:51:04;;;;;;;6.30;3.80;;;;;;;;;;5439035;26;20448;-65
2024/04/16 09:53:29;;;;;;;7.45;4.22;;;;;;;;;;5443461;26;20010;-63
2024/04/16 09:55:55;;;;;;;10.23;3.55;;;;;;;;;;5444974;26;20018;-64
2024/04/16 09:58:20;;;;;;;12.68;4.65;;;;;;;;;;5413579;26;20447;-63
2024/04/16 10:00:45;;;;;;;8.23;4.57;;;;;;;;;;5415648;26;20169;-66
2024/04/16 10:03:11;;;;;;;7.28;3.80;;;;;;;;;;5441041;26;20013;-65
2024/04/16 10:05:36;;;;;;;9.20;4.55;;;;;;;;;;5449913;26;19999;-65
2024/04/16 10:08:01;;;;;;;9.52;4.07;;;;;;;;;;5444156;26;20418;-62
2024/04/16 10:10:26;;;;;;;6.70;3.78;;;;;;;;;;5418397;26;20661;-63
2024/04/16 10:12:52;;;;;;;8.25;3.95;;;;;;;;;;5449092;26;19998;-64
2024/04/16 10:15:19;;;;;;;8.52;4.13;;;;;;;;;;5416584;26;20018;-63
2024/04/16 10:17:54;;;;;;;9.75;4.07;;;;;;;;;;5446646;26;20022;-63
2024/04/16 10:20:23;;;;;;;9.25;4.18;;;;;;;;;;5413571;26;20010;-63
2024/04/16 10:22:54;;;;;;;10.73;4.20;;;;;;;;;;5425684;26;20045;-65
2024/04/16 10:25:23;;;;;;;7.35;4.10;;;;;;;;;;5399728;26;20045;-65
2024/04/16 10:27:49;;;;;;;8.10;3.87;;;;;;;;;;5447874;26;20007;-63
2024/04/16 10:30:15;;;;;;;10.57;4.13;;;;;;;;;;5447985;26;20252;-64
2024/04/16 10:32:44;;;;;;;9.48;4.10;;;;;;;;;;5449539;26;19999;-62
2024/04/16 10:35:10;;;;;;;9.63;3.60;;;;;;;;;;5452788;26;20013;-62
2024/04/16 10:37:39;;;;;;;10.32;3.67;;;;;;;;;;5442759;26;20008;-63
2024/04/16 10:40:05;;;;;;;10.68;4.05;;;;;;;;;;5432075;26;20006;-65
2024/04/16 10:42:36;;;;;;;11.90;4.07;;;;;;;;;;5438669;26;20070;-65
2024/04/16 10:45:01;;;;;;;10.25;3.95;;;;;;;;;;5446010;26;20018;-64
2024/04/16 10:47:26;;;;;;;13.02;4.45;;;;;;;;;;5447990;26;19998;-63
2024/04/16 10:49:55;;;;;;;16.95;4.63;;;;;;;;;;5388914;26;19999;-63
2024/04/16 10:52:21;;;;;;;14.10;4.57;;;;;;;;;;5447837;26;20514;-63
2024/04/16 10:54:51;;;;;;;13.25;4.47;;;;;;;;;;5447507;26;20003;-63
2024/04/16 10:57:17;;;;;;;15.15;4.32;;;;;;;;;;5443749;26;19998;-61
2024/04/16 10:59:44;;;;;;;22.02;5.55;;;;;;;;;;5444913;26;20010;-64
2024/04/16 11:02:09;;;;;;;26.20;5.85;;;;;;;;;;5448456;26;20006;-64
2024/04/16 11:04:34;;;;;;;21.13;5.60;;;;;;;;;;5415859;26;20452;-64
2024/04/16 11:07:00;;;;;;;26.67;6.45;;;;;;;;;;5431842;26;20405;-64
2024/04/16 11:09:25;;;;;;;23.73;6.00;;;;;;;;;;5422885;26;20317;-65
2024/04/16 11:11:51;;;;;;;23.58;5.75;;;;;;;;;;5447648;26;20518;-64
2024/04/16 11:14:16;;;;;;;24.25;6.13;;;;;;;;;;5446311;26;20002;-64
2024/04/16 11:16:41;;;;;;;22.52;5.53;;;;;;;;;;5414292;26;19999;-65
2024/04/16 11:19:07;;;;;;;26.90;5.95;;;;;;;;;;5446199;26;20027;-65
2024/04/16 11:21:34;;;;;;;30.38;6.15;;;;;;;;;;5442150;26;20071;-66
2024/04/16 11:23:59;;;;;;;26.10;5.20;;;;;;;;;;5450392;26;20063;-64
2024/04/16 11:26:25;;;;;;;25.95;5.60;;;;;;;;;;5418634;26;20003;-64
2024/04/16 11:28:51;;;;;;;20.40;5.35;;;;;;;;;;5402581;26;19999;-63
2024/04/16 11:31:17;;;;;;;26.73;5.47;;;;;;;;;;5443367;26;20006;-63
2024/04/16 11:33:43;;;;;;;21.65;5.20;;;;;;;;;;5444398;26;20011;-63
2024/04/16 11:36:08;;;;;;;24.38;5.78;;;;;;;;;;5397303;26;19999;-64
2024/04/16 11:38:34;;;;;;;26.40;5.43;;;;;;;;;;5438590;26;20452;-62
2024/04/16 11:40:59;;;;;;;30.58;6.00;;;;;;;;;;5437424;26;20408;-62
2024/04/16 11:43:31;;;;;;;24.02;6.30;;;;;;;;;;5412913;26;20009;-64
2024/04/16 11:45:56;;;;;;;21.00;5.40;;;;;;;;;;5409864;26;20026;-63
2024/04/16 11:48:21;;;;;;;24.30;5.90;;;;;;;;;;5432845;26;20494;-64
2024/04/16 11:50:47;;;;;;;27.75;5.78;;;;;;;;;;5427297;26;19999;-63
2024/04/16 11:53:12;;;;;;;24.27;5.95;;;;;;;;;;5444323;26;20009;-63
2024/04/16 11:55:38;;;;;;;26.08;6.13;;;;;;;;;;5445491;26;20439;-64
2024/04/16 11:58:03;;;;;;;28.10;5.82;;;;;;;;;;5430067;26;20072;-63
2024/04/16 12:00:29;;;;;;;20.55;5.53;;;;;;;;;;5446560;26;19995;-64
2024/04/16 12:02:54;;;;;;;25.55;5.93;;;;;;;;;;5445590;26;20696;-64
2024/04/16 12:05:23;;;;;;;20.90;5.85;;;;;;;;;;5434799;26;20356;-67
2024/04/16 12:07:48;;;;;;;24.05;5.90;;;;;;;;;;5440595;26;20301;-66
2024/04/16 12:10:15;;;;;;;23.63;6.75;;;;;;;;;;5429206;26;19999;-67
2024/04/16 12:12:40;;;;;;;27.90;7.25;;;;;;;;;;5443584;26;20006;-66
2024/04/16 12:15:06;;;;;;;25.60;6.47;;;;;;;;;;5435465;26;20010;-65
2024/04/16 12:17:31;;;;;;;27.05;6.95;;;;;;;;;;5437686;26;20079;-66
2024/04/16 12:19:58;;;;;;;24.48;6.43;;;;;;;;;;5420233;26;20075;-64
2024/04/16 12:22:23;;;;;;;25.70;5.45;;;;;;;;;;5409697;26;20006;-64
2024/04/16 12:24:49;;;;;;;27.60;6.40;;;;;;;;;;5431467;26;20003;-65
2024/04/16 12:27:14;;;;;;;23.55;5.75;;;;;;;;;;5446953;26;20013;-66
2024/04/16 12:29:39;;;;;;;22.02;5.80;;;;;;;;;;5436665;26;20050;-66
2024/04/16 12:32:05;;;;;;;19.67;6.07;;;;;;;;;;5445074;26;20071;-66
2024/04/16 12:34:31;;;;;;;19.98;5.43;;;;;;;;;;5441373;26;20003;-66
2024/04/16 12:36:56;;;;;;;25.02;5.75;;;;;;;;;;5445576;26;20026;-63
2024/04/16 12:39:21;;;;;;;19.33;5.38;;;;;;;;;;5420766;26;20026;-61
2024/04/16 12:41:47;;;;;;;23.40;6.10;;;;;;;;;;5451264;26;20003;-62
2024/04/16 12:44:12;;;;;;;22.83;5.57;;;;;;;;;;5440137;26;20036;-61
2024/04/16 12:46:38;;;;;;;20.75;4.68;;;;;;;;;;5441846;26;20420;-62
2024/04/16 12:49:03;;;;;;;18.88;5.47;;;;;;;;;;5412133;26;20602;-62
2024/04/16 12:51:29;;;;;;;19.25;5.68;;;;;;;;;;5443271;26;19999;-61
2024/04/16 12:53:54;;;;;;;19.63;5.18;;;;;;;;;;5437229;26;19998;-62
2024/04/16 12:56:19;;;;;;;27.00;5.78;;;;;;;;;;5430814;26;20018;-62
2024/04/16 12:58:47;;;;;;;19.77;5.97;;;;;;;;;;5423520;26;20003;-61
2024/04/16 13:01:13;;;;;;;22.88;4.85;;;;;;;;;;5438831;26;19999;-61
2024/04/16 13:03:38;;;;;;;25.25;5.50;;;;;;;;;;5441440;26;20343;-60
2024/04/16 13:06:03;;;;;;;19.48;4.70;;;;;;;;;;5409619;26;20148;-62
2024/04/16 13:08:29;;;;;;;19.50;5.35;;;;;;;;;;5417235;26;20003;-64
2024/04/16 13:10:54;;;;;;;24.05;5.95;;;;;;;;;;5438005;26;20051;-61
2024/04/16 13:13:19;;;;;;;21.77;5.35;;;;;;;;;;5441798;26;20455;-62
2024/04/16 13:15:45;;;;;;;23.05;5.47;;;;;;;;;;5446695;26;20002;-61
2024/04/16 13:18:10;;;;;;;22.48;5.05;;;;;;;;;;5449974;26;20029;-63
2024/04/16 13:20:35;;;;;;;22.80;4.80;;;;;;;;;;5449006;26;20014;-61
2024/04/16 13:23:01;;;;;;;21.88;4.75;;;;;;;;;;5446445;26;20003;-61
2024/04/16 13:25:26;;;;;;;19.75;4.85;;;;;;;;;;5443981;26;20003;-61
2024/04/16 13:27:51;;;;;;;17.42;4.72;;;;;;;;;;5410766;26;20006;-63
2024/04/16 13:30:17;;;;;;;22.23;4.93;;;;;;;;;;5412589;26;20007;-63
2024/04/16 13:32:42;;;;;;;19.63;4.60;;;;;;;;;;5439156;26;20404;-64
2024/04/16 13:35:07;;;;;;;20.13;4.78;;;;;;;;;;5445170;26;20010;-60
2024/04/16 13:37:33;;;;;;;20.70;4.82;;;;;;;;;;5440954;26;20003;-62
2024/04/16 13:39:58;;;;;;;19.08;4.70;;;;;;;;;;5432155;26;19999;-61
2024/04/16 13:42:23;;;;;;;21.27;4.88;;;;;;;;;;5435833;26;20003;-62
2024/04/16 13:44:49;;;;;;;19.33;4.05;;;;;;;;;;5431046;26;20118;-62
2024/04/16 13:47:16;;;;;;;18.67;4.65;;;;;;;;;;5430255;26;20010;-61
2024/04/16 13:49:42;;;;;;;23.15;5.03;;;;;;;;;;5435478;26;20006;-62
2024/04/16 13:52:08;;;;;;;16.67;3.97;;;;;;;;;;5441985;26;20014;-63
2024/04/16 13:54:33;;;;;;;17.10;4.72;;;;;;;;;;5418007;26;20043;-63
2024/04/16 13:56:58;;;;;;;22.55;4.63;;;;;;;;;;5442949;26;20090;-63
2024/04/16 13:59:24;;;;;;;21.52;4.82;;;;;;;;;;5443540;26;20014;-62
2024/04/16 14:01:49;;;;;;;22.42;4.65;;;;;;;;;;5432974;26;20007;-63
2024/04/16 14:04:21;;;;;;;16.10;4.32;;;;;;;;;;5435080;26;20703;-62
2024/04/16 14:06:46;;;;;;;20.40;4.82;;;;;;;;;;5440212;26;20401;-61
2024/04/16 14:09:12;;;;;;;19.20;3.97;;;;;;;;;;5440723;26;20497;-63
2024/04/16 14:11:37;;;;;;;21.42;4.97;;;;;;;;;;5433368;26;19996;-63
2024/04/16 14:14:04;;;;;;;19.23;4.57;;;;;;;;;;5431822;26;20096;-63
2024/04/16 14:16:29;;;;;;;15.07;3.58;;;;;;;;;;5439114;26;20067;-63
2024/04/16 14:18:54;;;;;;;22.88;4.15;;;;;;;;;;5410509;26;20019;-62
2024/04/16 14:21:20;;;;;;;19.27;5.07;;;;;;;;;;5437676;26;20021;-63
2024/04/16 14:23:46;;;;;;;17.60;4.32;;;;;;;;;;5437333;26;19995;-62
2024/04/16 14:26:15;;;;;;;19.17;4.32;;;;;;;;;;5435677;26;20035;-62
2024/04/16 14:28:42;;;;;;;16.60;4.13;;;;;;;;;;5391141;26;20068;-63
2024/04/16 14:31:07;;;;;;;20.45;4.82;;;;;;;;;;5413069;26;19995;-63
2024/04/16 14:33:33;;;;;;;17.65;4.55;;;;;;;;;;5417083;26;20011;-62